Latest Coastal Weather Observations for Port Augusta

IDS60701

Issued at 1:05 am CDT Friday 28 November 2014 (issued every 10 minutes, with the page automatically refreshed every 10 minutes)

About coastal observations | Map of coastal stations | Coastal observations for SA | Marine services | Other Formats
Station Details ID: 018201 Name: PORT AUGUSTA AERO Lat: -32.51 Lon: 137.72 Height: 13.97 m
Data from the previous 72 hours. | See also: Recent months at Port Augusta
Date/Time
CDT
Temp

°C
Wind Pressure Rain
since 9am
mm
Weather Cloud Vis
km
Sea
Height
m
Swell
Dir
 
Speed
knots
Gust
knots
hPa Trend Height
m
Period
s
Dir
28/01:00am 20.5 S 6 7 1017.3 - 0.0 - - - - - - -
28/12:30am 21.4 S 4 9 1017.6 - 0.0 - - - - - - -
28/12:00am 22.0 SSW 6 13 1017.7 - 0.0 - - - - - - -
 
Date/Time
CDT
Temp

°C
Wind Pressure Rain
since 9am
mm
Weather Cloud Vis
km
Sea
Height
m
Swell
Dir
 
Speed
knots
Gust
knots
hPa Trend Height
m
Period
s
Dir
27/11:30pm 22.4 SSE 17 22 1017.5 - 0.0 - - - - - - -
27/11:00pm 22.4 SSE 17 23 1017.4 - 0.0 - - - - - - -
27/10:30pm 22.4 SSE 20 29 1017.4 - 0.0 - - - - - - -
27/10:00pm 22.9 SSE 19 25 1017.6 - 0.0 - - - - - - -
27/09:30pm 23.4 SSE 19 25 1017.6 - 0.0 - - - - - - -
27/09:00pm 24.3 S 15 21 1017.6 - 0.0 - - - - - - -
27/08:30pm 24.8 S 15 21 1017.7 - 0.0 - - - - - - -
27/08:00pm 25.4 SSE 9 14 1017.7 - 0.0 - - - - - - -
27/07:30pm 26.9 S 14 21 1017.5 - 0.0 - - - - - - -
27/07:00pm 27.8 S 17 21 1017.2 - 0.0 - - - - - - -
27/06:30pm 28.9 SSE 18 22 1016.7 - 0.0 - - - - - - -
27/06:00pm 29.4 SSE 17 23 1016.5 - 0.0 - - - - - - -
27/05:30pm 29.3 SE 16 23 1016.5 - 0.0 - - - - - - -
27/05:00pm 29.6 SE 17 22 1016.5 - 0.0 - - - - - - -
27/04:30pm 29.8 SE 17 22 1016.8 - 0.0 - - - - - - -
27/04:00pm 30.7 SSE 16 21 1017.1 - 0.0 - - - - - - -
27/03:30pm 29.9 SE 15 19 1017.4 - 0.0 - - - - - - -
27/03:00pm 30.6 S 10 18 1017.6 - 0.0 - - - - - - -
27/02:30pm 31.0 S 11 18 1018.0 - 0.0 - - - - - - -
27/02:00pm 30.3 ESE 10 15 1018.3 - 0.0 - - - - - - -
27/01:30pm 30.1 ESE 10 13 1018.7 - 0.0 - - - - - - -
27/01:00pm 29.5 SE 6 10 1019.1 - 0.0 - - - - - - -
27/12:30pm 29.3 SE 7 11 1019.4 - 0.0 - - - - - - -
27/12:00pm 28.3 ESE 7 11 1019.9 - 0.0 - - - - - - -
27/11:30am 27.3 SE 7 12 1020.2 - 0.0 - - - - - - -
27/11:00am 27.3 ESE 7 10 1020.4 - 0.0 - - - - - - -
27/10:30am 25.4 SE 9 12 1020.5 - 0.0 - - - - - - -
27/10:00am 24.7 SE 8 14 1020.8 - 0.0 - - - - - - -
27/09:30am 23.8 SE 10 13 1021.1 - 0.0 - - - - - - -
27/09:00am 23.3 ESE 8 11 1021.2 - 0.0 - - - - - - -
27/08:30am 21.8 SE 9 12 1021.1 - 0.0 - - - - - - -
27/08:00am 21.8 E 5 8 1020.9 - 0.0 - - - - - - -
27/07:30am 19.7 SSE 11 13 1020.7 - 0.0 - - - - - - -
27/07:00am 18.7 SE 9 12 1020.5 - 0.0 - - - - - - -
27/06:30am 17.8 SE 11 14 1020.6 - 0.0 - - - - - - -
27/06:00am 17.4 SE 11 13 1020.3 - 0.0 - - - - - - -
27/05:30am 17.5 SE 10 13 1020.1 - 0.0 - - - - - - -
27/05:00am 17.7 SE 10 13 1019.8 - 0.0 - - - - - - -
27/04:30am 17.9 SSE 10 13 1019.7 - 0.0 - - - - - - -
27/04:00am 18.0 SSE 8 10 1019.6 - 0.0 - - - - - - -
27/03:30am 17.7 S 9 11 1019.6 - 0.0 - - - - - - -
27/03:00am 17.8 S 9 12 1019.6 - 0.0 - - - - - - -
27/02:30am 17.6 S 9 11 1019.6 - 0.0 - - - - - - -
27/02:00am 17.4 SSE 9 11 1019.9 - 0.0 - - - - - - -
27/01:30am 18.1 SSE 11 14 1020.2 - 0.0 - - - - - - -
27/01:00am 17.9 S 8 13 1020.4 - 0.0 - - - - - - -
27/12:30am 18.4 S 15 19 1020.5 - 0.0 - - - - - - -
27/12:00am 18.3 S 19 24 1020.6 - 0.0 - - - - - - -
 
Date/Time
CDT
Temp

°C
Wind Pressure Rain
since 9am
mm
Weather Cloud Vis
km
Sea
Height
m
Swell
Dir
 
Speed
knots
Gust
knots
hPa Trend Height
m
Period
s
Dir
26/11:30pm 18.6 SSE 18 24 1020.6 - 0.0 - - - - - - -
26/11:00pm 18.9 SSE 18 23 1020.3 - 0.0 - - - - - - -
26/10:30pm 19.6 SSE 16 20 1020.3 - 0.0 - - - - - - -
26/10:00pm 20.1 SSE 18 23 1020.1 - 0.0 - - - - - - -
26/09:30pm 20.5 S 20 26 1019.7 - 0.0 - - - - - - -
26/09:00pm 21.2 S 19 24 1019.3 - 0.0 - - - - - - -
26/08:30pm 21.9 S 15 20 1019.1 - 0.0 - - - - - - -
26/08:00pm 22.2 S 13 18 1018.9 - 0.0 - - - - - - -
26/07:30pm 23.0 SSE 17 21 1018.8 - 0.0 - - - - - - -
26/07:00pm 24.2 SSE 17 21 1018.6 - 0.0 - - - - - - -
26/06:30pm 25.5 SSE 17 22 1018.4 - 0.0 - - - - - - -
26/06:00pm 26.3 SSE 16 21 1018.3 - 0.0 - - - - - - -
26/05:30pm 26.3 SE 18 24 1018.1 - 0.0 - - - - - - -
26/05:00pm 26.0 SE 17 23 1018.3 - 0.0 - - - - - - -
26/04:30pm 26.4 SE 17 22 1018.4 - 0.0 - - - - - - -
26/04:00pm 27.2 SE 17 22 1018.6 - 0.0 - - - - - - -
26/03:30pm 27.6 SE 17 22 1018.9 - 0.0 - - - - - - -
26/03:00pm 27.7 SE 17 22 1019.2 - 0.0 - - - - - - -
26/02:30pm 27.6 SE 14 19 1019.6 - 0.0 - - - - - - -
26/02:00pm 26.9 ESE 12 17 1020.0 - 0.0 - - - - - - -
26/01:30pm 25.6 ESE 11 16 1020.4 - 0.0 - - - - - - -
26/01:00pm 25.6 SSE 11 16 1020.6 - 0.0 - - - - - - -
26/12:30pm 24.8 SE 13 17 1020.9 - 0.0 - - - - - - -
26/12:00pm 23.9 SSE 12 16 1021.3 - 0.0 - - - - - - -
26/11:30am 23.8 SE 12 16 1021.6 - 0.0 - - - - - - -
26/11:00am 22.9 SE 10 15 1021.8 - 0.0 - - - - - - -
26/10:30am 22.5 SSE 11 16 1021.9 - 0.0 - - - - - - -
26/10:00am 21.7 SE 11 16 1021.9 - 0.0 - - - - - - -
26/09:30am 20.5 SE 11 15 1022.1 - 0.0 - - - - - - -
26/09:00am 19.9 SSE 13 16 1022.3 - 0.0 - - - - - - -
26/08:30am 18.7 SE 10 13 1021.9 - 0.0 - - - - - - -
26/08:00am 18.2 SE 12 15 1021.6 - 0.0 - - - - - - -
26/07:30am 17.1 SSE 13 16 1021.3 - 0.0 - - - - - - -
26/07:00am 16.4 SSE 11 15 1020.9 - 0.0 - - - - - - -
26/06:30am 15.5 SSE 10 12 1020.6 - 0.0 - - - - - - -
26/06:00am 15.1 SSE 10 13 1020.1 - 0.0 - - - - - - -
26/05:30am 15.0 SSE 8 10 1019.9 - 0.0 - - - - - - -
26/05:00am 15.3 SSE 11 14 1020.0 - 0.0 - - - - - - -
26/04:30am 15.3 SSE 12 16 1019.9 - 0.0 - - - - - - -
26/04:00am 15.7 SSE 11 14 1020.0 - 0.0 - - - - - - -
26/03:30am 15.7 SSE 14 18 1020.0 - 0.0 - - - - - - -
26/03:00am 15.8 S 13 17 1020.1 - 0.0 - - - - - - -
26/02:30am 16.1 S 13 17 1020.2 - 0.0 - - - - - - -
26/02:00am 16.2 S 16 20 1020.2 - 0.0 - - - - - - -
26/01:30am 16.9 S 14 20 1020.4 - 0.0 - - - - - - -
26/01:00am 16.8 S 13 17 1020.6 - 0.0 - - - - - - -
26/12:30am 17.1 S 12 17 1020.8 - 0.0 - - - - - - -
26/12:00am 17.3 SSE 14 20 1021.0 - 0.0 - - - - - - -
 
Date/Time
CDT
Temp

°C
Wind Pressure Rain
since 9am
mm
Weather Cloud Vis
km
Sea
Height
m
Swell
Dir
 
Speed
knots
Gust
knots
hPa Trend Height
m
Period
s
Dir
25/11:30pm 17.9 SSE 17 23 1021.2 - 0.0 - - - - - - -
25/11:00pm 18.1 SSE 17 21 1021.1 - 0.0 - - - - - - -
25/10:30pm 18.4 SSE 20 26 1020.9 - 0.0 - - - - - - -
25/10:15pm 18.4 SSE 21 31 1020.8 - 0.0 - - - - - - -
25/10:00pm 18.7 S 21 27 1020.6 - 0.0 - - - - - - -
25/09:30pm 18.9 SSE 16 21 1020.7 - 0.0 - - - - - - -
25/09:00pm 19.0 SSE 14 18 1020.4 - 0.0 - - - - - - -
25/08:30pm 19.1 SSE 17 25 1020.1 - 0.0 - - - - - - -
25/08:00pm 19.5 S 18 25 1020.1 - 0.0 - - - - - - -
25/07:30pm 20.3 SSE 17 25 1019.9 - 0.0 - - - - - - -
25/07:00pm 21.6 S 18 23 1019.7 - 0.0 - - - - - - -
25/06:30pm 21.8 SSE 19 25 1019.3 - 0.0 - - - - - - -
25/06:00pm 22.7 SSE 19 26 1019.2 - 0.0 - - - - - - -
25/05:30pm 23.4 SSE 18 28 1019.2 - 0.0 - - - - - - -
25/05:27pm 22.7 SE 18 28 1019.2 - 0.0 - - - - - - -
25/05:00pm 23.4 SE 18 24 1019.1 - 0.0 - - - - - - -
25/04:30pm 23.8 SE 18 25 1019.2 - 0.0 - - - - - - -
25/04:00pm 23.7 SE 17 22 1019.5 - 0.0 - - - - - - -
25/03:30pm 23.8 SE 15 21 1019.8 - 0.0 - - - - - - -
25/03:00pm 22.9 SE 16 20 1020.1 - 0.0 - - - - - - -
25/02:30pm 24.0 SE 14 19 1020.4 - 0.0 - - - - - - -
25/02:00pm 23.1 SSE 10 16 1020.8 - 0.0 - - - - - - -
25/01:30pm 23.1 S 11 15 1021.1 - 0.0 - - - - - - -
25/01:00pm 22.4 SSE 13 20 1021.4 - 0.0 - - - - - - -
25/12:30pm 21.1 SSE 12 18 1021.9 - 0.0 - - - - - - -
25/12:00pm 21.4 SSE 13 20 1022.1 - 0.0 - - - - - - -
25/11:30am 20.5 S 16 22 1022.2 - 0.0 - - - - - - -
25/11:00am 19.8 SSE 16 21 1022.4 - 0.0 - - - - - - -
25/10:30am 19.1 SE 14 19 1022.7 - 0.0 - - - - - - -
25/10:00am 18.5 SSE 14 20 1022.6 - 0.0 - - - - - - -
25/09:30am 18.3 SE 12 17 1022.7 - 0.0 - - - - - - -
25/09:00am 17.5 SE 13 19 1022.7 - 0.0 - - - - - - -
25/08:30am 16.4 SE 12 15 1022.8 - 0.0 - - - - - - -
25/08:00am 16.6 SSE 14 18 1022.6 - 0.0 - - - - - - -
25/07:30am 15.3 SE 12 16 1022.5 - 0.0 - - - - - - -
25/07:00am 14.1 SE 8 11 1022.4 - 0.0 - - - - - - -
25/06:30am 12.9 SE 7 9 1022.1 - 0.0 - - - - - - -
25/06:00am 13.0 SE 8 11 1021.9 - 0.0 - - - - - - -
25/05:30am 13.3 SSE 8 12 1021.5 - 0.0 - - - - - - -
25/05:00am 13.0 SSE 11 13 1021.2 - 0.0 - - - - - - -
25/04:30am 12.9 SSE 10 13 1021.2 - 0.0 - - - - - - -
25/04:00am 13.2 SSE 11 13 1020.9 - 0.0 - - - - - - -
25/03:30am 13.8 SE 10 13 1020.8 - 0.0 - - - - - - -
25/03:00am 14.0 SE 11 16 1020.6 - 0.0 - - - - - - -
25/02:30am 14.2 SE 11 15 1020.7 - 0.0 - - - - - - -
25/02:00am 14.8 SE 11 14 1020.5 - 0.0 - Partly cloudy - - - - -
25/01:30am 15.3 SE 10 15 1020.6 - 0.0 - Partly cloudy - - - - -

Other Formats:

Comma delimited format used in spreadsheet applications
http://www.bom.gov.au/fwo/IDS60701/IDS60701.95666.axf

JavaScript Object Notation format (JSON) in row-major order
http://www.bom.gov.au/fwo/IDS60701/IDS60701.95666.json